sensor_id;sensor_type;location;lat;lon;timestamp;pressure;altitude;pressure_sealevel;temperature;humidity
6034;BME280;3045;43.226;27.858;2023-03-11T00:02:08;150080.56;;;16.09;100.00
6034;BME280;3045;43.226;27.858;2023-03-11T00:04:35;150083.09;;;16.10;100.00
6034;BME280;3045;43.226;27.858;2023-03-11T00:07:06;150091.97;;;16.13;100.00
6034;BME280;3045;43.226;27.858;2023-03-11T00:09:34;150111.06;;;16.21;100.00
6034;BME280;3045;43.226;27.858;2023-03-11T00:12:01;150112.28;;;16.21;100.00
6034;BME280;3045;43.226;27.858;2023-03-11T00:14:29;150123.72;;;16.26;100.00
6034;BME280;3045;43.226;27.858;2023-03-11T00:16:55;150152.97;;;16.37;100.00
6034;BME280;3045;43.226;27.858;2023-03-11T00:19:22;150177.06;;;16.47;100.00
6034;BME280;3045;43.226;27.858;2023-03-11T00:21:49;150201.19;;;16.57;100.00
6034;BME280;3045;43.226;27.858;2023-03-11T00:24:17;150221.56;;;16.65;100.00
6034;BME280;3045;43.226;27.858;2023-03-11T00:26:44;150255.84;;;16.78;100.00
6034;BME280;3045;43.226;27.858;2023-03-11T00:29:11;150263.47;;;16.81;100.00
6034;BME280;3045;43.226;27.858;2023-03-11T00:31:38;150260.91;;;16.80;100.00
6034;BME280;3045;43.226;27.858;2023-03-11T00:34:05;150302.88;;;16.97;100.00
6034;BME280;3045;43.226;27.858;2023-03-11T00:36:32;150301.59;;;16.97;100.00
6034;BME280;3045;43.226;27.858;2023-03-11T00:39:00;150337.13;;;17.11;100.00
6034;BME280;3045;43.226;27.858;2023-03-11T00:41:32;150344.78;;;17.14;100.00
6034;BME280;3045;43.226;27.858;2023-03-11T00:43:59;150347.28;;;17.15;100.00
6034;BME280;3045;43.226;27.858;2023-03-11T00:46:26;150323.19;;;17.05;100.00
6034;BME280;3045;43.226;27.858;2023-03-11T00:48:54;150338.41;;;17.11;100.00
6034;BME280;3045;43.226;27.858;2023-03-11T00:51:21;150370.16;;;17.24;100.00
6034;BME280;3045;43.226;27.858;2023-03-11T00:53:48;150379.06;;;17.27;100.00
6034;BME280;3045;43.226;27.858;2023-03-11T00:56:15;150351.13;;;17.16;100.00
6034;BME280;3045;43.226;27.858;2023-03-11T00:58:43;150316.81;;;17.03;100.00
6034;BME280;3045;43.226;27.858;2023-03-11T01:01:12;150368.91;;;17.23;100.00
6034;BME280;3045;43.226;27.858;2023-03-11T01:03:41;150358.72;;;17.19;100.00
6034;BME280;3045;43.226;27.858;2023-03-11T01:06:08;150368.91;;;17.23;100.00
6034;BME280;3045;43.226;27.858;2023-03-11T01:08:35;150382.88;;;17.29;100.00
6034;BME280;3045;43.226;27.858;2023-03-11T01:11:03;150358.72;;;17.19;100.00
6034;BME280;3045;43.226;27.858;2023-03-11T01:13:30;150401.94;;;17.36;100.00
6034;BME280;3045;43.226;27.858;2023-03-11T01:15:59;150385.44;;;17.30;100.00
6034;BME280;3045;43.226;27.858;2023-03-11T01:18:26;150351.13;;;17.16;100.00
6034;BME280;3045;43.226;27.858;2023-03-11T01:20:53;150353.69;;;17.17;100.00
6034;BME280;3045;43.226;27.858;2023-03-11T01:23:21;150349.84;;;17.16;100.00
6034;BME280;3045;43.226;27.858;2023-03-11T01:25:48;150361.28;;;17.20;100.00
6034;BME280;3045;43.226;27.858;2023-03-11T01:28:15;150353.69;;;17.17;100.00
6034;BME280;3045;43.226;27.858;2023-03-11T01:30:41;150375.28;;;17.26;100.00
6034;BME280;3045;43.226;27.858;2023-03-11T01:33:13;150404.50;;;17.38;100.00
6034;BME280;3045;43.226;27.858;2023-03-11T01:35:41;150410.81;;;17.40;100.00
6034;BME280;3045;43.226;27.858;2023-03-11T01:38:08;150399.38;;;17.35;100.00
6034;BME280;3045;43.226;27.858;2023-03-11T01:40:37;150419.75;;;17.44;100.00
6034;BME280;3045;43.226;27.858;2023-03-11T01:43:06;150399.38;;;17.35;100.00
6034;BME280;3045;43.226;27.858;2023-03-11T01:46:11;150410.81;;;17.40;100.00
6034;BME280;3045;43.226;27.858;2023-03-11T01:48:41;150409.59;;;17.40;100.00
6034;BME280;3045;43.226;27.858;2023-03-11T01:51:11;150409.59;;;17.40;100.00
6034;BME280;3045;43.226;27.858;2023-03-11T01:53:38;150419.75;;;17.44;100.00
6034;BME280;3045;43.226;27.858;2023-03-11T01:56:06;150367.63;;;17.23;100.00
6034;BME280;3045;43.226;27.858;2023-03-11T01:58:35;150368.91;;;17.23;100.00
6034;BME280;3045;43.226;27.858;2023-03-11T02:01:04;150314.25;;;17.02;100.00
6034;BME280;3045;43.226;27.858;2023-03-11T02:03:34;150286.34;;;16.90;100.00
6034;BME280;3045;43.226;27.858;2023-03-11T02:06:06;150271.13;;;16.84;100.00
6034;BME280;3045;43.226;27.858;2023-03-11T02:08:34;150278.72;;;16.87;100.00
6034;BME280;3045;43.226;27.858;2023-03-11T02:11:03;150246.97;;;16.75;100.00
6034;BME280;3045;43.226;27.858;2023-03-11T02:13:31;150216.50;;;16.63;100.00
6034;BME280;3045;43.226;27.858;2023-03-11T02:16:00;150222.81;;;16.65;100.00
6034;BME280;3045;43.226;27.858;2023-03-11T02:18:27;150226.66;;;16.67;100.00
6034;BME280;3045;43.226;27.858;2023-03-11T02:21:04;150225.38;;;16.66;100.00
6034;BME280;3045;43.226;27.858;2023-03-11T02:23:37;150205.06;;;16.58;100.00
6034;BME280;3045;43.226;27.858;2023-03-11T02:26:12;150179.59;;;16.48;100.00
6034;BME280;3045;43.226;27.858;2023-03-11T02:28:42;150217.78;;;16.63;100.00
6034;BME280;3045;43.226;27.858;2023-03-11T02:31:09;150202.50;;;16.57;100.00
6034;BME280;3045;43.226;27.858;2023-03-11T02:33:37;150192.31;;;16.53;100.00
6034;BME280;3045;43.226;27.858;2023-03-11T02:36:04;150192.31;;;16.53;100.00
6034;BME280;3045;43.226;27.858;2023-03-11T02:41:00;150142.81;;;16.33;100.00
6034;BME280;3045;43.226;27.858;2023-03-11T02:43:32;150182.16;;;16.49;100.00
6034;BME280;3045;43.226;27.858;2023-03-11T02:46:03;150145.31;;;16.34;100.00
6034;BME280;3045;43.226;27.858;2023-03-11T02:48:33;150173.28;;;16.45;100.00
6034;BME280;3045;43.226;27.858;2023-03-11T02:51:01;150196.13;;;16.55;100.00
6034;BME280;3045;43.226;27.858;2023-03-11T02:53:32;150163.13;;;16.41;100.00
6034;BME280;3045;43.226;27.858;2023-03-11T02:56:01;150198.63;;;16.56;100.00
6034;BME280;3045;43.226;27.858;2023-03-11T02:58:28;150182.16;;;16.49;100.00
6034;BME280;3045;43.226;27.858;2023-03-11T03:00:54;150198.63;;;16.56;100.00
6034;BME280;3045;43.226;27.858;2023-03-11T03:03:23;150210.13;;;16.60;100.00
6034;BME280;3045;43.226;27.858;2023-03-11T03:05:50;150144.03;;;16.34;100.00
6034;BME280;3045;43.226;27.858;2023-03-11T03:08:16;150175.78;;;16.46;100.00
6034;BME280;3045;43.226;27.858;2023-03-11T03:10:43;150175.78;;;16.46;100.00
6034;BME280;3045;43.226;27.858;2023-03-11T03:13:10;150131.38;;;16.29;100.00
6034;BME280;3045;43.226;27.858;2023-03-11T03:15:37;150123.72;;;16.26;100.00
6034;BME280;3045;43.226;27.858;2023-03-11T03:18:04;150135.16;;;16.30;100.00
6034;BME280;3045;43.226;27.858;2023-03-11T03:20:33;150154.19;;;16.38;100.00
6034;BME280;3045;43.226;27.858;2023-03-11T03:23:00;150150.41;;;16.36;100.00
6034;BME280;3045;43.226;27.858;2023-03-11T03:25:27;150100.84;;;16.17;100.00
6034;BME280;3045;43.226;27.858;2023-03-11T03:27:54;150144.03;;;16.34;100.00
6034;BME280;3045;43.226;27.858;2023-03-11T03:30:21;150137.69;;;16.31;100.00
6034;BME280;3045;43.226;27.858;2023-03-11T03:32:48;150119.94;;;16.24;100.00
6034;BME280;3045;43.226;27.858;2023-03-11T03:35:15;150128.81;;;16.28;100.00
6034;BME280;3045;43.226;27.858;2023-03-11T03:37:43;150179.59;;;16.48;100.00
6034;BME280;3045;43.226;27.858;2023-03-11T03:40:11;150173.28;;;16.45;100.00
6034;BME280;3045;43.226;27.858;2023-03-11T03:42:39;150159.28;;;16.40;100.00
6034;BME280;3045;43.226;27.858;2023-03-11T03:45:07;150146.59;;;16.35;100.00
6034;BME280;3045;43.226;27.858;2023-03-11T03:47:35;150151.69;;;16.37;100.00
6034;BME280;3045;43.226;27.858;2023-03-11T03:50:02;150111.06;;;16.21;100.00
6034;BME280;3045;43.226;27.858;2023-03-11T03:52:29;150144.03;;;16.34;100.00
6034;BME280;3045;43.226;27.858;2023-03-11T03:54:57;150126.28;;;16.27;100.00
6034;BME280;3045;43.226;27.858;2023-03-11T03:57:24;150142.81;;;16.33;100.00
6034;BME280;3045;43.226;27.858;2023-03-11T03:59:51;150172.00;;;16.45;100.00
6034;BME280;3045;43.226;27.858;2023-03-11T04:02:18;150182.16;;;16.49;100.00
6034;BME280;3045;43.226;27.858;2023-03-11T04:04:45;150161.84;;;16.41;100.00
6034;BME280;3045;43.226;27.858;2023-03-11T04:07:12;150211.41;;;16.61;100.00
6034;BME280;3045;43.226;27.858;2023-03-11T04:09:39;150182.16;;;16.49;100.00
6034;BME280;3045;43.226;27.858;2023-03-11T04:12:11;150105.97;;;16.19;100.00
6034;BME280;3045;43.226;27.858;2023-03-11T04:14:38;149999.34;;;15.76;100.00
6034;BME280;3045;43.226;27.858;2023-03-11T04:17:05;149900.28;;;15.37;100.00
6034;BME280;3045;43.226;27.858;2023-03-11T04:19:32;149910.44;;;15.41;100.00
6034;BME280;3045;43.226;27.858;2023-03-11T04:21:59;149860.97;;;15.21;100.00
6034;BME280;3045;43.226;27.858;2023-03-11T04:24:26;144780.06;;;15.01;100.00
6034;BME280;3045;43.226;27.858;2023-03-11T04:26:52;128366.88;;;15.03;100.00
6034;BME280;3045;43.226;27.858;2023-03-11T04:29:21;116664.13;;;14.90;100.00
6034;BME280;3045;43.226;27.858;2023-03-11T04:31:49;109064.28;;;15.18;100.00
6034;BME280;3045;43.226;27.858;2023-03-11T04:34:17;112756.41;;;15.36;100.00
6034;BME280;3045;43.226;27.858;2023-03-11T04:36:44;118072.44;;;15.29;100.00
6034;BME280;3045;43.226;27.858;2023-03-11T04:39:11;118416.84;;;15.34;100.00
6034;BME280;3045;43.226;27.858;2023-03-11T04:41:38;122758.97;;;15.37;100.00
6034;BME280;3045;43.226;27.858;2023-03-11T04:44:05;132463.44;;;15.41;100.00
6034;BME280;3045;43.226;27.858;2023-03-11T04:46:33;142221.66;;;15.61;100.00
6034;BME280;3045;43.226;27.858;2023-03-11T04:49:00;148419.34;;;15.64;100.00
6034;BME280;3045;43.226;27.858;2023-03-11T04:51:27;149946.03;;;15.55;100.00
6034;BME280;3045;43.226;27.858;2023-03-11T04:53:54;150015.81;;;15.83;100.00
6034;BME280;3045;43.226;27.858;2023-03-11T04:56:20;150033.63;;;15.90;100.00
6034;BME280;3045;43.226;27.858;2023-03-11T04:58:47;150019.63;;;15.84;100.00
6034;BME280;3045;43.226;27.858;2023-03-11T05:01:14;150051.38;;;15.97;100.00
6034;BME280;3045;43.226;27.858;2023-03-11T05:03:42;150042.50;;;15.93;100.00
6034;BME280;3045;43.226;27.858;2023-03-11T05:06:09;150032.34;;;15.89;100.00
6034;BME280;3045;43.226;27.858;2023-03-11T05:08:36;150053.94;;;15.98;100.00
6034;BME280;3045;43.226;27.858;2023-03-11T05:11:03;150024.75;;;15.86;100.00
6034;BME280;3045;43.226;27.858;2023-03-11T05:13:30;149979.03;;;15.68;100.00
6034;BME280;3045;43.226;27.858;2023-03-11T05:15:57;149968.88;;;15.64;100.00
6034;BME280;3045;43.226;27.858;2023-03-11T05:18:24;150036.16;;;15.91;100.00
6034;BME280;3045;43.226;27.858;2023-03-11T05:20:53;150116.13;;;16.23;100.00
6034;BME280;3045;43.226;27.858;2023-03-11T05:23:21;150188.47;;;16.52;100.00
6034;BME280;3045;43.226;27.858;2023-03-11T05:25:48;150215.22;;;16.62;100.00
6034;BME280;3045;43.226;27.858;2023-03-11T05:28:15;150201.19;;;16.57;100.00
6034;BME280;3045;43.226;27.858;2023-03-11T05:30:42;150179.59;;;16.48;100.00
6034;BME280;3045;43.226;27.858;2023-03-11T05:33:08;150126.28;;;16.27;100.00
6034;BME280;3045;43.226;27.858;2023-03-11T05:35:35;150150.41;;;16.36;100.00
6034;BME280;3045;43.226;27.858;2023-03-11T05:38:04;150161.84;;;16.41;100.00
6034;BME280;3045;43.226;27.858;2023-03-11T05:40:32;150164.38;;;16.42;100.00
6034;BME280;3045;43.226;27.858;2023-03-11T05:42:58;150207.56;;;16.59;100.00
6034;BME280;3045;43.226;27.858;2023-03-11T05:45:28;150210.13;;;16.60;100.00
6034;BME280;3045;43.226;27.858;2023-03-11T05:47:55;150245.69;;;16.74;100.00
6034;BME280;3045;43.226;27.858;2023-03-11T05:50:22;150226.66;;;16.67;100.00
6034;BME280;3045;43.226;27.858;2023-03-11T05:52:49;150184.72;;;16.50;100.00
6034;BME280;3045;43.226;27.858;2023-03-11T05:55:17;150233.00;;;16.69;100.00
6034;BME280;3045;43.226;27.858;2023-03-11T05:57:44;150235.53;;;16.70;100.00
6034;BME280;3045;43.226;27.858;2023-03-11T06:00:12;150249.53;;;16.76;100.00
6034;BME280;3045;43.226;27.858;2023-03-11T06:02:39;150271.13;;;16.84;100.00
6034;BME280;3045;43.226;27.858;2023-03-11T06:05:07;150281.28;;;16.88;100.00
6034;BME280;3045;43.226;27.858;2023-03-11T06:07:34;150286.34;;;16.90;100.00
6034;BME280;3045;43.226;27.858;2023-03-11T06:10:02;150238.09;;;16.71;100.00
6034;BME280;3045;43.226;27.858;2023-03-11T06:12:32;150248.25;;;16.75;100.00
6034;BME280;3045;43.226;27.858;2023-03-11T06:14:59;150288.88;;;16.92;100.00
6034;BME280;3045;43.226;27.858;2023-03-11T06:17:26;150292.66;;;16.93;100.00
6034;BME280;3045;43.226;27.858;2023-03-11T06:19:53;150320.63;;;17.04;100.00
6034;BME280;3045;43.226;27.858;2023-03-11T06:22:20;150309.19;;;17.00;100.00
6034;BME280;3045;43.226;27.858;2023-03-11T06:24:47;150255.84;;;16.78;100.00
6034;BME280;3045;43.226;27.858;2023-03-11T06:27:13;150287.59;;;16.91;100.00
6034;BME280;3045;43.226;27.858;2023-03-11T06:29:42;150254.56;;;16.78;100.00
6034;BME280;3045;43.226;27.858;2023-03-11T06:32:08;150281.28;;;16.88;100.00
6034;BME280;3045;43.226;27.858;2023-03-11T06:34:35;150240.59;;;16.72;100.00
6034;BME280;3045;43.226;27.858;2023-03-11T06:37:03;150263.47;;;16.81;100.00
6034;BME280;3045;43.226;27.858;2023-03-11T06:39:29;150306.66;;;16.99;100.00
6034;BME280;3045;43.226;27.858;2023-03-11T06:41:56;150357.47;;;17.19;100.00
6034;BME280;3045;43.226;27.858;2023-03-11T06:44:23;150431.19;;;17.48;100.00
6034;BME280;3045;43.226;27.858;2023-03-11T06:46:52;150548.16;;;17.95;100.00
6034;BME280;3045;43.226;27.858;2023-03-11T06:49:19;150532.91;;;17.89;100.00
6034;BME280;3045;43.226;27.858;2023-03-11T06:51:45;150534.19;;;17.89;100.00
6034;BME280;3045;43.226;27.858;2023-03-11T06:54:12;150480.78;;;17.68;100.00
6034;BME280;3045;43.226;27.858;2023-03-11T06:56:39;150460.47;;;17.60;100.00
6034;BME280;3045;43.226;27.858;2023-03-11T06:59:06;150399.38;;;17.35;100.00
6034;BME280;3045;43.226;27.858;2023-03-11T07:01:33;150431.19;;;17.48;100.00
6034;BME280;3045;43.226;27.858;2023-03-11T07:04:01;150469.34;;;17.63;100.00
6034;BME280;3045;43.226;27.858;2023-03-11T07:06:28;150459.19;;;17.59;100.00
6034;BME280;3045;43.226;27.858;2023-03-11T07:08:55;150456.63;;;17.58;100.00
6034;BME280;3045;43.226;27.858;2023-03-11T07:11:24;150452.75;;;17.57;100.00
6034;BME280;3045;43.226;27.858;2023-03-11T07:13:52;150422.25;;;17.45;100.00
6034;BME280;3045;43.226;27.858;2023-03-11T07:16:20;150414.66;;;17.42;100.00
6034;BME280;3045;43.226;27.858;2023-03-11T07:18:49;150386.72;;;17.30;100.00
6034;BME280;3045;43.226;27.858;2023-03-11T07:21:19;150400.66;;;17.36;100.00
6034;BME280;3045;43.226;27.858;2023-03-11T07:23:46;150389.22;;;17.31;100.00
6034;BME280;3045;43.226;27.858;2023-03-11T07:26:15;150408.31;;;17.39;100.00
6034;BME280;3045;43.226;27.858;2023-03-11T07:28:43;150436.25;;;17.50;100.00
6034;BME280;3045;43.226;27.858;2023-03-11T07:31:12;150492.22;;;17.72;100.00
6034;BME280;3045;43.226;27.858;2023-03-11T07:33:39;150567.22;;;18.02;100.00
6034;BME280;3045;43.226;27.858;2023-03-11T07:36:07;150559.56;;;17.99;100.00
6034;BME280;3045;43.226;27.858;2023-03-11T07:38:36;150672.75;;;18.44;100.00
6034;BME280;3045;43.226;27.858;2023-03-11T07:41:04;150703.31;;;18.56;100.00
6034;BME280;3045;43.226;27.858;2023-03-11T07:43:31;150722.38;;;18.64;100.00
6034;BME280;3045;43.226;27.858;2023-03-11T07:46:03;150696.97;;;18.54;100.00
6034;BME280;3045;43.226;27.858;2023-03-11T07:48:30;150682.94;;;18.48;100.00
6034;BME280;3045;43.226;27.858;2023-03-11T07:51:05;150660.03;;;18.39;100.00
6034;BME280;3045;43.226;27.858;2023-03-11T07:53:32;150677.81;;;18.46;100.00
6034;BME280;3045;43.226;27.858;2023-03-11T07:56:02;150667.66;;;18.42;100.00
6034;BME280;3045;43.226;27.858;2023-03-11T07:58:29;150643.53;;;18.33;100.00
6034;BME280;3045;43.226;27.858;2023-03-11T08:01:01;150677.81;;;18.46;100.00
6034;BME280;3045;43.226;27.858;2023-03-11T08:03:28;150677.81;;;18.46;100.00
6034;BME280;3045;43.226;27.858;2023-03-11T08:05:55;150736.41;;;18.69;100.00
6034;BME280;3045;43.226;27.858;2023-03-11T08:08:23;150782.19;;;18.88;100.00
6034;BME280;3045;43.226;27.858;2023-03-11T08:10:50;150794.88;;;18.93;100.00
6034;BME280;3045;43.226;27.858;2023-03-11T08:13:19;150905.59;;;19.37;100.00
6034;BME280;3045;43.226;27.858;2023-03-11T08:15:46;150945.06;;;19.52;100.00
6034;BME280;3045;43.226;27.858;2023-03-11T08:18:12;151063.47;;;19.99;100.00
6034;BME280;3045;43.226;27.858;2023-03-11T08:20:39;151155.22;;;20.36;100.00
6034;BME280;3045;43.226;27.858;2023-03-11T08:23:06;151273.66;;;20.83;100.00
6034;BME280;3045;43.226;27.858;2023-03-11T08:25:33;151240.53;;;20.70;100.00
6034;BME280;3045;43.226;27.858;2023-03-11T08:28:04;151092.78;;;20.11;100.00
6034;BME280;3045;43.226;27.858;2023-03-11T08:30:33;151011.28;;;19.79;100.00
6034;BME280;3045;43.226;27.858;2023-03-11T08:33:00;151027.84;;;19.85;100.00
6034;BME280;3045;43.226;27.858;2023-03-11T08:35:27;150952.75;;;19.55;100.00
6034;BME280;3045;43.226;27.858;2023-03-11T08:37:54;150962.94;;;19.59;100.00
6034;BME280;3045;43.226;27.858;2023-03-11T08:40:21;150934.91;;;19.48;100.00
6034;BME280;3045;43.226;27.858;2023-03-11T08:42:48;150854.72;;;19.16;100.00
6034;BME280;3045;43.226;27.858;2023-03-11T08:45:15;150854.72;;;19.16;100.00
6034;BME280;3045;43.226;27.858;2023-03-11T08:47:44;150920.94;;;19.43;100.00
6034;BME280;3045;43.226;27.858;2023-03-11T08:50:13;150909.44;;;19.38;100.00
6034;BME280;3045;43.226;27.858;2023-03-11T08:52:40;150883.97;;;19.28;100.00
6034;BME280;3045;43.226;27.858;2023-03-11T08:55:08;150845.81;;;19.13;100.00
6034;BME280;3045;43.226;27.858;2023-03-11T08:57:36;150833.06;;;19.08;100.00
6034;BME280;3045;43.226;27.858;2023-03-11T09:00:05;150759.28;;;18.79;100.00
6034;BME280;3045;43.226;27.858;2023-03-11T09:02:33;150764.34;;;18.81;100.00
6034;BME280;3045;43.226;27.858;2023-03-11T09:05:02;150759.28;;;18.79;100.00
6034;BME280;3045;43.226;27.858;2023-03-11T09:07:29;150785.97;;;18.89;100.00
6034;BME280;3045;43.226;27.858;2023-03-11T09:09:56;150775.81;;;18.85;100.00
6034;BME280;3045;43.226;27.858;2023-03-11T09:12:23;150774.53;;;18.85;100.00
6034;BME280;3045;43.226;27.858;2023-03-11T09:14:50;150740.22;;;18.71;100.00
6034;BME280;3045;43.226;27.858;2023-03-11T09:17:16;150649.88;;;18.35;100.00
6034;BME280;3045;43.226;27.858;2023-03-11T09:19:43;150609.19;;;18.19;100.00
6034;BME280;3045;43.226;27.858;2023-03-11T09:22:12;150471.91;;;17.64;100.00
6034;BME280;3045;43.226;27.858;2023-03-11T09:24:38;150349.84;;;17.16;100.00
6034;BME280;3045;43.226;27.858;2023-03-11T09:27:05;150260.91;;;16.80;100.00
6034;BME280;3045;43.226;27.858;2023-03-11T09:29:32;150248.25;;;16.75;100.00
6034;BME280;3045;43.226;27.858;2023-03-11T09:31:59;150230.44;;;16.68;100.00
6034;BME280;3045;43.226;27.858;2023-03-11T09:34:26;150225.38;;;16.66;100.00
6034;BME280;3045;43.226;27.858;2023-03-11T09:36:53;150234.25;;;16.70;100.00
6034;BME280;3045;43.226;27.858;2023-03-11T09:39:21;150199.91;;;16.56;100.00
6034;BME280;3045;43.226;27.858;2023-03-11T09:41:52;150150.41;;;16.36;100.00
6034;BME280;3045;43.226;27.858;2023-03-11T09:44:23;150210.13;;;16.60;100.00
6034;BME280;3045;43.226;27.858;2023-03-11T09:50:05;150061.53;;;16.01;100.00
6034;BME280;3045;43.226;27.858;2023-03-11T09:52:41;149944.75;;;15.54;100.00
6034;BME280;3045;43.226;27.858;2023-03-11T09:55:23;149891.44;;;15.33;100.00
6034;BME280;3045;43.226;27.858;2023-03-11T09:57:53;149835.59;;;15.11;100.00
6034;BME280;3045;43.226;27.858;2023-03-11T10:00:23;140101.22;;;15.45;100.00
6034;BME280;3045;43.226;27.858;2023-03-11T10:02:50;111492.31;;;15.72;100.00
6034;BME280;3045;43.226;27.858;2023-03-11T10:05:21;113530.00;;;15.92;100.00
6034;BME280;3045;43.226;27.858;2023-03-11T10:07:54;106534.19;;;15.90;100.00
6034;BME280;3045;43.226;27.858;2023-03-11T10:10:25;97274.25;;;16.14;100.00
6034;BME280;3045;43.226;27.858;2023-03-11T10:12:59;121251.44;;;16.16;100.00
6034;BME280;3045;43.226;27.858;2023-03-11T10:15:38;127014.34;;;16.53;100.00
6034;BME280;3045;43.226;27.858;2023-03-11T10:21:11;150310.47;;;17.00;100.00
6034;BME280;3045;43.226;27.858;2023-03-11T10:23:56;150306.66;;;16.99;100.00
6034;BME280;3045;43.226;27.858;2023-03-11T10:26:30;150234.25;;;16.70;100.00
6034;BME280;3045;43.226;27.858;2023-03-11T10:29:02;150269.84;;;16.84;100.00
6034;BME280;3045;43.226;27.858;2023-03-11T10:31:36;150250.75;;;16.76;100.00
6034;BME280;3045;43.226;27.858;2023-03-11T10:34:11;150202.50;;;16.57;100.00
6034;BME280;3045;43.226;27.858;2023-03-11T10:36:47;139618.47;;;16.29;100.00
6034;BME280;3045;43.226;27.858;2023-03-11T10:39:16;134346.78;;;16.34;100.00
6034;BME280;3045;43.226;27.858;2023-03-11T10:41:50;149651.72;;;16.35;100.00
6034;BME280;3045;43.226;27.858;2023-03-11T10:44:22;149916.22;;;16.76;100.00
6034;BME280;3045;43.226;27.858;2023-03-11T10:46:50;150285.06;;;16.90;100.00
6034;BME280;3045;43.226;27.858;2023-03-11T10:49:17;150313.03;;;17.01;100.00
6034;BME280;3045;43.226;27.858;2023-03-11T10:51:46;150421.00;;;17.44;100.00
6034;BME280;3045;43.226;27.858;2023-03-11T10:54:23;150635.88;;;18.30;100.00
6034;BME280;3045;43.226;27.858;2023-03-11T10:56:56;150952.75;;;19.55;100.00
6034;BME280;3045;43.226;27.858;2023-03-11T10:59:27;151052.00;;;19.95;100.00
6034;BME280;3045;43.226;27.858;2023-03-11T11:01:57;151057.09;;;19.97;100.00
6034;BME280;3045;43.226;27.858;2023-03-11T11:04:33;151185.75;;;20.48;100.00
6034;BME280;3045;43.226;27.858;2023-03-11T11:07:19;151416.38;;;21.39;100.00
6034;BME280;3045;43.226;27.858;2023-03-11T11:09:47;151622.94;;;22.21;100.00
6034;BME280;3045;43.226;27.858;2023-03-11T11:12:35;151899.75;;;23.31;100.00
6034;BME280;3045;43.226;27.858;2023-03-11T11:15:03;151818.13;;;22.99;100.00
6034;BME280;3045;43.226;27.858;2023-03-11T11:17:32;151566.81;;;21.99;100.00
6034;BME280;3045;43.226;27.858;2023-03-11T11:20:01;151411.28;;;21.37;100.00
6034;BME280;3045;43.226;27.858;2023-03-11T11:22:37;151239.25;;;20.69;100.00
6034;BME280;3045;43.226;27.858;2023-03-11T11:25:26;151122.03;;;20.23;100.00
6034;BME280;3045;43.226;27.858;2023-03-11T11:27:56;151064.72;;;20.00;100.00
6034;BME280;3045;43.226;27.858;2023-03-11T11:30:24;151036.75;;;19.89;100.00
6034;BME280;3045;43.226;27.858;2023-03-11T11:32:52;151008.72;;;19.78;100.00
6034;BME280;3045;43.226;27.858;2023-03-11T11:35:21;150905.59;;;19.37;100.00
6034;BME280;3045;43.226;27.858;2023-03-11T11:37:50;150835.63;;;19.09;100.00
6034;BME280;3045;43.226;27.858;2023-03-11T11:40:24;150750.41;;;18.75;100.00
6034;BME280;3045;43.226;27.858;2023-03-11T11:42:55;150760.56;;;18.79;100.00
6034;BME280;3045;43.226;27.858;2023-03-11T11:45:28;150761.84;;;18.80;100.00
6034;BME280;3045;43.226;27.858;2023-03-11T11:47:59;150722.38;;;18.64;100.00
6034;BME280;3045;43.226;27.858;2023-03-11T11:50:33;150708.44;;;18.58;100.00
6034;BME280;3045;43.226;27.858;2023-03-11T11:53:08;150704.59;;;18.57;100.00
6034;BME280;3045;43.226;27.858;2023-03-11T11:55:39;150675.31;;;18.45;100.00
6034;BME280;3045;43.226;27.858;2023-03-11T11:58:10;150652.41;;;18.36;100.00
6034;BME280;3045;43.226;27.858;2023-03-11T12:00:48;150638.41;;;18.31;100.00
6034;BME280;3045;43.226;27.858;2023-03-11T12:03:48;150586.28;;;18.10;100.00
6034;BME280;3045;43.226;27.858;2023-03-11T12:06:25;150562.13;;;18.00;100.00
6034;BME280;3045;43.226;27.858;2023-03-11T12:09:02;150628.25;;;18.26;100.00
6034;BME280;3045;43.226;27.858;2023-03-11T12:11:36;150572.28;;;18.04;100.00
6034;BME280;3045;43.226;27.858;2023-03-11T12:14:11;150535.47;;;17.90;100.00
6034;BME280;3045;43.226;27.858;2023-03-11T12:16:49;150485.84;;;17.70;100.00
6034;BME280;3045;43.226;27.858;2023-03-11T12:19:25;150461.75;;;17.60;100.00
6034;BME280;3045;43.226;27.858;2023-03-11T12:25:16;150307.94;;;16.99;100.00
6034;BME280;3045;43.226;27.858;2023-03-11T12:27:49;150431.19;;;17.48;100.00
6034;BME280;3045;43.226;27.858;2023-03-11T12:30:22;150400.66;;;17.36;100.00
6034;BME280;3045;43.226;27.858;2023-03-11T12:32:53;150367.63;;;17.23;100.00
6034;BME280;3045;43.226;27.858;2023-03-11T12:35:23;150385.44;;;17.30;100.00
6034;BME280;3045;43.226;27.858;2023-03-11T12:38:04;150380.34;;;17.28;100.00
6034;BME280;3045;43.226;27.858;2023-03-11T12:40:57;150366.41;;;17.22;100.00
6034;BME280;3045;43.226;27.858;2023-03-11T12:43:27;150309.19;;;17.00;100.00
6034;BME280;3045;43.226;27.858;2023-03-11T12:46:15;150318.09;;;17.03;100.00
6034;BME280;3045;43.226;27.858;2023-03-11T12:48:44;150288.88;;;16.92;100.00
6034;BME280;3045;43.226;27.858;2023-03-11T12:51:38;150306.66;;;16.99;100.00
6034;BME280;3045;43.226;27.858;2023-03-11T12:54:27;150305.38;;;16.98;100.00
6034;BME280;3045;43.226;27.858;2023-03-11T12:56:56;150326.97;;;17.07;100.00
6034;BME280;3045;43.226;27.858;2023-03-11T13:00:12;150337.13;;;17.11;100.00
6034;BME280;3045;43.226;27.858;2023-03-11T13:03:11;150352.41;;;17.17;100.00
6034;BME280;3045;43.226;27.858;2023-03-11T13:05:50;150318.09;;;17.03;100.00
6034;BME280;3045;43.226;27.858;2023-03-11T13:08:20;150353.69;;;17.17;100.00
6034;BME280;3045;43.226;27.858;2023-03-11T13:10:49;150367.63;;;17.23;100.00
6034;BME280;3045;43.226;27.858;2023-03-11T13:13:35;150349.84;;;17.16;100.00
6034;BME280;3045;43.226;27.858;2023-03-11T13:16:35;150347.28;;;17.15;100.00